Time;durP1;ratioP1;P1;durP2;ratioP2;P2;SDS_P1;SDS_P2;PMS_P1;PMS_P2;Temp;Humidity;BMP_temperature;BMP_pressure;BME280_temperature;BME280_humidity;BME280_pressure;Samples;Min_cycle;Max_cycle;Signal;HPM_P1;HPM_P2
2021/12/15 06:01:15;;;;;;;7.15;4.03;;;7.20;99.90;;;;;;5573481;23;20674;-79
2021/12/15 06:03:42;;;;;;;7.18;3.40;;;7.20;99.90;;;;;;4934340;29;20557;-80
2021/12/15 06:06:09;;;;;;;6.63;3.42;;;7.20;99.90;;;;;;4934375;29;20059;-80
2021/12/15 06:08:37;;;;;;;6.10;3.17;;;7.20;99.90;;;;;;4934322;29;20051;-81
2021/12/15 06:11:04;;;;;;;5.93;3.00;;;7.20;99.90;;;;;;4934502;29;20058;-81
2021/12/15 06:13:31;;;;;;;6.55;3.08;;;7.20;99.90;;;;;;4934295;29;20048;-79
2021/12/15 06:16:00;;;;;;;5.32;2.88;;;7.20;99.90;;;;;;4934333;29;20047;-78
2021/12/15 06:18:29;;;;;;;5.63;2.70;;;7.20;99.90;;;;;;4934014;29;20052;-78
2021/12/15 06:20:56;;;;;;;4.93;2.53;;;7.20;99.90;;;;;;4934424;29;20057;-78
2021/12/15 06:23:24;;;;;;;4.95;2.58;;;7.20;99.90;;;;;;4934290;29;20054;-79
2021/12/15 06:25:56;;;;;;;5.38;2.95;;;7.20;99.90;;;;;;4934040;29;20044;-80
2021/12/15 06:28:25;;;;;;;5.40;2.55;;;7.20;99.90;;;;;;4934285;29;20442;-77
2021/12/15 06:30:53;;;;;;;6.25;2.83;;;7.20;99.90;;;;;;4934402;29;20047;-79
2021/12/15 06:33:21;;;;;;;5.43;2.42;;;7.20;99.90;;;;;;4934264;29;20183;-79
2021/12/15 06:35:53;;;;;;;5.22;2.42;;;7.20;99.90;;;;;;4933999;29;20485;-78
2021/12/15 06:38:22;;;;;;;4.85;2.40;;;7.20;99.90;;;;;;4934621;29;20048;-78
2021/12/15 06:40:50;;;;;;;4.88;2.40;;;7.20;99.90;;;;;;4938345;29;20050;-79
2021/12/15 06:43:17;;;;;;;4.85;2.47;;;7.20;99.90;;;;;;4938015;29;20051;-76
2021/12/15 06:46:05;;;;;;;5.38;2.83;;;7.20;99.90;;;;;;4937479;29;20058;-79
2021/12/15 06:59:34;;;;;;;5.15;2.75;;;7.10;99.90;;;;;;4939635;29;20480;-78
2021/12/15 07:02:02;;;;;;;5.45;3.22;;;7.20;99.90;;;;;;4937090;29;20066;-78
2021/12/15 07:04:29;;;;;;;5.68;3.08;;;7.10;99.90;;;;;;4937007;29;20061;-80
2021/12/15 07:06:57;;;;;;;6.78;3.25;;;7.10;99.90;;;;;;4937123;29;20051;-79
2021/12/15 07:09:25;;;;;;;5.82;3.33;;;7.10;99.90;;;;;;4936563;29;20060;-80
2021/12/15 07:11:53;;;;;;;6.28;3.40;;;7.10;99.90;;;;;;4936870;29;20050;-80
2021/12/15 07:14:21;;;;;;;6.30;3.72;;;7.10;99.90;;;;;;4936776;29;20481;-78
2021/12/15 07:16:51;;;;;;;6.57;3.40;;;7.10;99.90;;;;;;4936919;29;20056;-77
2021/12/15 07:19:29;;;;;;;6.07;3.15;;;7.10;99.90;;;;;;4937047;29;20056;-79
2021/12/15 07:22:08;;;;;;;6.30;3.40;;;7.10;99.90;;;;;;4936891;29;20464;-79
2021/12/15 07:24:38;;;;;;;6.07;3.08;;;7.10;99.90;;;;;;4936788;29;20077;-76
2021/12/15 07:27:07;;;;;;;5.63;2.80;;;7.10;99.90;;;;;;4936775;29;20148;-78
2021/12/15 07:29:35;;;;;;;5.88;3.00;;;7.10;99.90;;;;;;4935491;29;20051;-77
2021/12/15 07:32:04;;;;;;;6.10;2.75;;;7.10;99.90;;;;;;4936380;29;20047;-78
2021/12/15 07:34:31;;;;;;;5.45;3.10;;;7.10;99.90;;;;;;4936522;29;20052;-79
2021/12/15 07:37:00;;;;;;;5.50;2.95;;;7.10;99.90;;;;;;4936286;29;20386;-80
2021/12/15 07:39:27;;;;;;;5.18;2.63;;;7.10;99.90;;;;;;4936453;29;20061;-81
2021/12/15 07:42:04;;;;;;;6.07;3.15;;;7.00;99.90;;;;;;4936303;29;20576;-78
2021/12/15 07:44:32;;;;;;;6.15;3.15;;;7.10;99.90;;;;;;4936382;29;20139;-79
2021/12/15 07:47:00;;;;;;;5.10;2.88;;;7.00;99.90;;;;;;4936311;29;20062;-78
2021/12/15 07:49:29;;;;;;;5.05;2.70;;;7.00;99.90;;;;;;4936196;29;20044;-78
2021/12/15 07:52:01;;;;;;;5.25;2.70;;;7.00;99.90;;;;;;4935833;29;20067;-79
2021/12/15 07:54:32;;;;;;;4.93;2.22;;;7.00;99.90;;;;;;4936327;29;20052;-77
2021/12/15 07:57:00;;;;;;;4.95;2.15;;;6.90;99.90;;;;;;4936150;29;20056;-80
2021/12/15 07:59:27;;;;;;;5.18;2.47;;;6.90;99.90;;;;;;4936102;29;20062;-80
2021/12/15 08:01:55;;;;;;;4.35;2.00;;;7.00;99.90;;;;;;4934410;29;20383;-80
2021/12/15 08:04:22;;;;;;;5.22;2.50;;;7.00;99.90;;;;;;4937967;29;20138;-76
2021/12/15 08:06:49;;;;;;;5.20;2.70;;;6.90;99.90;;;;;;4936520;29;20048;-77
2021/12/15 08:09:17;;;;;;;5.50;2.85;;;6.90;99.90;;;;;;4937971;29;20054;-79
2021/12/15 08:11:45;;;;;;;6.22;2.60;;;6.90;99.90;;;;;;4939249;29;20138;-78
2021/12/15 08:14:12;;;;;;;5.60;2.42;;;6.90;99.90;;;;;;4937905;29;20138;-78
2021/12/15 08:16:39;;;;;;;5.45;2.53;;;6.90;99.90;;;;;;4935844;29;20485;-78
2021/12/15 08:19:07;;;;;;;4.57;2.28;;;6.90;99.90;;;;;;4935879;29;20058;-78
2021/12/15 08:21:34;;;;;;;5.07;2.65;;;6.90;99.90;;;;;;4935822;29;20130;-79
2021/12/15 08:24:01;;;;;;;5.45;2.50;;;6.80;99.90;;;;;;4935609;29;20074;-80
2021/12/15 08:26:29;;;;;;;5.40;2.40;;;6.80;99.90;;;;;;4918520;29;20139;-78
2021/12/15 08:28:58;;;;;;;4.45;2.20;;;6.80;99.90;;;;;;4935684;29;20097;-78
2021/12/15 08:31:25;;;;;;;5.05;2.40;;;6.80;99.90;;;;;;4936420;29;20138;-80
2021/12/15 08:33:52;;;;;;;4.53;2.08;;;6.80;99.90;;;;;;4935502;29;20139;-79
2021/12/15 08:36:19;;;;;;;4.95;2.20;;;6.80;99.90;;;;;;4935421;29;20055;-78
2021/12/15 08:38:49;;;;;;;6.18;2.65;;;6.80;99.90;;;;;;4935432;29;20062;-80
2021/12/15 08:41:20;;;;;;;4.70;2.17;;;6.80;99.90;;;;;;4935418;29;20043;-78
2021/12/15 08:43:48;;;;;;;4.78;2.35;;;6.80;99.90;;;;;;4937960;29;20055;-78
2021/12/15 08:46:20;;;;;;;4.72;2.30;;;6.80;99.90;;;;;;4919695;29;20430;-77
2021/12/15 08:48:49;;;;;;;5.30;2.22;;;6.80;99.90;;;;;;4935317;29;20211;-75
2021/12/15 08:51:25;;;;;;;4.90;2.42;;;6.80;99.90;;;;;;4935730;29;20055;-77
2021/12/15 08:53:53;;;;;;;5.10;2.40;;;6.90;99.90;;;;;;4935661;29;20059;-77
2021/12/15 08:56:21;;;;;;;4.72;2.33;;;6.80;99.90;;;;;;4935466;29;20048;-78
2021/12/15 08:58:48;;;;;;;4.50;2.15;;;6.90;99.90;;;;;;4935184;29;20056;-76
2021/12/15 09:01:17;;;;;;;4.97;2.20;;;6.90;99.90;;;;;;4934785;29;20066;-77
2021/12/15 09:03:44;;;;;;;4.88;2.17;;;6.90;99.90;;;;;;4936225;29;20058;-80
2021/12/15 09:06:13;;;;;;;4.95;2.50;;;6.90;99.90;;;;;;4936074;29;20051;-76
2021/12/15 09:08:42;;;;;;;4.43;2.15;;;6.90;99.90;;;;;;4936252;29;20055;-77
2021/12/15 09:11:15;;;;;;;5.65;2.50;;;6.90;99.90;;;;;;4935749;29;20378;-81
2021/12/15 09:13:43;;;;;;;5.75;2.50;;;6.90;99.90;;;;;;4933015;29;20047;-78
2021/12/15 09:16:13;;;;;;;5.20;2.42;;;6.90;99.90;;;;;;4934734;29;20061;-79
2021/12/15 09:18:44;;;;;;;5.00;2.60;;;6.90;99.90;;;;;;4935043;29;20058;-78
2021/12/15 09:21:15;;;;;;;4.53;2.40;;;6.90;99.90;;;;;;4939034;29;20047;-78
2021/12/15 09:23:42;;;;;;;4.75;2.25;;;6.90;99.90;;;;;;4941317;29;20057;-79
2021/12/15 09:26:10;;;;;;;3.92;2.03;;;7.00;99.90;;;;;;4934726;29;20497;-75
2021/12/15 09:28:38;;;;;;;4.95;2.20;;;7.00;99.90;;;;;;4934876;29;20055;-79
2021/12/15 09:31:09;;;;;;;5.18;2.35;;;7.00;99.90;;;;;;4934613;29;20706;-76
2021/12/15 09:33:41;;;;;;;4.97;2.50;;;7.10;99.90;;;;;;4934949;29;20044;-76
2021/12/15 09:36:12;;;;;;;4.93;2.33;;;7.10;99.90;;;;;;4934717;29;20063;-78
2021/12/15 09:38:40;;;;;;;6.68;2.95;;;7.10;99.90;;;;;;4934650;29;20139;-79
2021/12/15 09:41:10;;;;;;;5.28;2.35;;;7.10;99.90;;;;;;4934544;29;20525;-79
2021/12/15 09:43:38;;;;;;;5.88;2.58;;;7.10;99.90;;;;;;4934394;29;20047;-78
2021/12/15 09:46:12;;;;;;;5.38;2.30;;;7.10;99.90;;;;;;4934367;29;20059;-78
2021/12/15 10:02:42;;;;;;;7.30;3.30;;;7.20;99.90;;;;;;4934336;29;20066;-80
2021/12/15 10:05:25;;;;;;;7.68;3.72;;;7.20;99.90;;;;;;4934166;29;20661;-78
2021/12/15 10:11:00;;;;;;;8.05;4.05;;;7.20;99.90;;;;;;4934611;29;20538;-78
2021/12/15 10:19:19;;;;;;;8.75;4.93;;;7.30;99.90;;;;;;4896684;29;20075;-77
2021/12/15 10:22:02;;;;;;;8.82;4.93;;;7.30;99.90;;;;;;4938639;29;20074;-78
2021/12/15 10:24:36;;;;;;;7.78;4.13;;;7.30;99.90;;;;;;4937719;29;20059;-79
2021/12/15 10:27:07;;;;;;;7.60;4.28;;;7.40;99.90;;;;;;4938129;29;20051;-78
2021/12/15 10:29:34;;;;;;;8.02;4.30;;;7.40;99.90;;;;;;4937982;29;20055;-77
2021/12/15 10:32:05;;;;;;;8.90;4.15;;;7.40;99.90;;;;;;4936810;29;20044;-79
2021/12/15 10:34:32;;;;;;;8.35;4.18;;;7.40;99.90;;;;;;4937455;29;20605;-80
2021/12/15 10:37:00;;;;;;;7.10;4.32;;;7.40;99.90;;;;;;4937865;29;20053;-76
2021/12/15 10:39:27;;;;;;;9.02;5.20;;;7.40;99.90;;;;;;4937873;29;20477;-79
2021/12/15 10:41:56;;;;;;;8.10;4.90;;;7.40;99.90;;;;;;4920519;29;20055;-79
2021/12/15 10:44:28;;;;;;;7.43;4.45;;;7.40;99.90;;;;;;4937262;29;20055;-80
2021/12/15 10:46:59;;;;;;;8.73;4.65;;;7.40;99.90;;;;;;4937637;29;20368;-78
2021/12/15 10:49:29;;;;;;;7.47;4.43;;;7.40;99.90;;;;;;4937412;29;20138;-78
2021/12/15 10:51:59;;;;;;;7.82;4.60;;;7.50;99.90;;;;;;4937374;29;20099;-80
2021/12/15 10:54:32;;;;;;;7.63;4.43;;;7.50;99.90;;;;;;4937213;29;20063;-79
2021/12/15 10:57:05;;;;;;;7.78;3.95;;;7.50;99.90;;;;;;4937171;29;20048;-80
2021/12/15 10:59:35;;;;;;;6.82;3.92;;;7.50;99.90;;;;;;4937058;29;20052;-78
2021/12/15 11:02:05;;;;;;;6.72;3.95;;;7.50;99.90;;;;;;4936808;29;20051;-80
2021/12/15 11:04:40;;;;;;;6.78;4.10;;;7.50;99.90;;;;;;4936959;29;20107;-79
2021/12/15 11:07:20;;;;;;;5.95;3.38;;;7.50;99.90;;;;;;4937091;29;20147;-77
2021/12/15 11:09:55;;;;;;;6.65;3.80;;;7.50;99.90;;;;;;4936809;29;20421;-78
2021/12/15 11:12:28;;;;;;;6.80;4.05;;;7.50;99.90;;;;;;4937034;29;20051;-78
2021/12/15 11:14:58;;;;;;;7.75;4.18;;;7.50;99.90;;;;;;4936864;29;20075;-80
2021/12/15 11:17:28;;;;;;;7.80;4.30;;;7.50;99.90;;;;;;4936796;29;20052;-76
2021/12/15 11:20:00;;;;;;;7.65;4.20;;;7.50;99.90;;;;;;4937065;29;20050;-79
2021/12/15 11:22:55;;;;;;;7.53;4.55;;;7.50;99.90;;;;;;4920732;29;20047;-80
2021/12/15 11:25:39;;;;;;;7.20;4.18;;;7.50;99.90;;;;;;4923383;29;20059;-79
2021/12/15 11:28:13;;;;;;;6.80;3.77;;;7.50;99.90;;;;;;4936683;29;20116;-80
2021/12/15 11:30:45;;;;;;;7.05;4.00;;;7.40;99.90;;;;;;4936650;29;20058;-77
2021/12/15 11:33:16;;;;;;;7.03;4.00;;;7.40;99.90;;;;;;4936439;29;20052;-76
2021/12/15 11:35:48;;;;;;;7.05;4.20;;;7.40;99.90;;;;;;4936760;29;20060;-78
2021/12/15 11:38:20;;;;;;;8.38;4.50;;;7.40;99.90;;;;;;4936543;29;20075;-79
2021/12/15 11:41:02;;;;;;;9.02;4.53;;;7.40;99.90;;;;;;4936647;29;20143;-80
2021/12/15 11:43:41;;;;;;;7.13;3.92;;;7.30;99.90;;;;;;4936417;29;20087;-78
2021/12/15 11:46:24;;;;;;;6.53;3.83;;;7.30;99.90;;;;;;4936354;29;20146;-81
2021/12/15 11:48:56;;;;;;;7.78;4.28;;;7.30;99.90;;;;;;4936127;29;20456;-82
2021/12/15 11:51:31;;;;;;;8.02;4.30;;;7.40;99.90;;;;;;4930415;29;20052;-77
2021/12/15 11:53:59;;;;;;;7.05;3.90;;;7.40;99.90;;;;;;4914216;29;20058;-77
2021/12/15 11:56:32;;;;;;;6.43;3.50;;;7.40;99.90;;;;;;4914275;29;20148;-78
2021/12/15 11:59:18;;;;;;;6.55;3.50;;;7.40;99.90;;;;;;4916577;29;20060;-79
2021/12/15 12:01:54;;;;;;;6.13;3.40;;;7.40;99.90;;;;;;4927579;29;20386;-76
2021/12/15 12:04:26;;;;;;;6.85;3.80;;;7.50;99.90;;;;;;4934824;29;20051;-79
2021/12/15 12:06:59;;;;;;;5.97;3.40;;;7.50;99.90;;;;;;4933360;29;20057;-80
2021/12/15 12:09:26;;;;;;;6.25;3.67;;;7.50;99.90;;;;;;4932869;29;20505;-78
2021/12/15 12:11:59;;;;;;;6.30;3.90;;;7.50;99.90;;;;;;4932634;29;20174;-77
2021/12/15 12:14:41;;;;;;;5.70;3.30;;;7.50;99.90;;;;;;4933298;29;20044;-78
2021/12/15 12:17:13;;;;;;;5.97;3.30;;;7.50;99.90;;;;;;4932315;29;20161;-81
2021/12/15 12:19:48;;;;;;;5.38;3.17;;;7.50;99.90;;;;;;4932962;29;20055;-77
2021/12/15 12:22:17;;;;;;;5.32;3.20;;;7.50;99.90;;;;;;4932830;29;20052;-78
2021/12/15 12:24:48;;;;;;;5.80;3.20;;;7.50;99.90;;;;;;4932777;29;20075;-80
2021/12/15 12:27:17;;;;;;;5.53;3.30;;;7.50;99.90;;;;;;4933016;29;20123;-79
2021/12/15 12:29:45;;;;;;;5.28;2.88;;;7.50;99.90;;;;;;4932202;29;20556;-80
2021/12/15 12:32:12;;;;;;;4.68;2.70;;;7.50;99.90;;;;;;4932843;29;20468;-81
2021/12/15 12:34:42;;;;;;;4.85;2.70;;;7.50;99.90;;;;;;4932590;29;20055;-78
2021/12/15 12:37:12;;;;;;;5.13;2.88;;;7.50;99.90;;;;;;4932096;29;20055;-80
2021/12/15 12:39:40;;;;;;;6.95;3.22;;;7.50;99.90;;;;;;4932680;29;20064;-76
2021/12/15 12:42:08;;;;;;;4.93;2.75;;;7.50;99.90;;;;;;4932314;29;20058;-77
2021/12/15 12:44:40;;;;;;;5.10;2.70;;;7.50;99.90;;;;;;4932526;29;20055;-78
2021/12/15 12:47:22;;;;;;;5.03;2.70;;;7.50;99.90;;;;;;4932231;29;20090;-76
2021/12/15 12:50:05;;;;;;;4.82;2.58;;;7.60;99.90;;;;;;4932301;29;20052;-81
2021/12/15 13:01:21;;;;;;;4.88;2.67;;;7.60;99.90;;;;;;4917530;29;20150;-81
2021/12/15 13:03:55;;;;;;;4.65;2.50;;;7.60;99.90;;;;;;4932253;29;20055;-78
2021/12/15 13:06:26;;;;;;;4.68;2.72;;;7.60;99.90;;;;;;4932200;29;20087;-79
2021/12/15 13:09:03;;;;;;;5.07;2.83;;;7.60;99.90;;;;;;4931505;29;20459;-79
2021/12/15 13:11:36;;;;;;;4.80;2.50;;;7.60;99.90;;;;;;4931956;29;20138;-78
2021/12/15 13:14:09;;;;;;;4.85;2.63;;;7.60;99.90;;;;;;4932068;29;20087;-80
2021/12/15 13:16:42;;;;;;;5.25;2.70;;;7.60;99.90;;;;;;4932175;29;20074;-80
2021/12/15 13:19:19;;;;;;;5.50;2.75;;;7.60;99.90;;;;;;4932243;29;20090;-79
2021/12/15 13:22:02;;;;;;;5.10;2.80;;;7.60;99.90;;;;;;4931567;29;20513;-78
2021/12/15 13:30:45;;;;;;;4.78;2.60;;;7.50;99.90;;;;;;4932086;29;20063;-78
2021/12/15 13:33:17;;;;;;;5.18;3.05;;;7.50;99.90;;;;;;4931336;29;20054;-79
2021/12/15 13:35:52;;;;;;;5.05;2.80;;;7.50;99.90;;;;;;4931325;29;20056;-78
2021/12/15 13:38:30;;;;;;;4.85;2.80;;;7.50;99.90;;;;;;4949007;29;20511;-78
2021/12/15 13:41:19;;;;;;;5.55;3.08;;;7.50;99.90;;;;;;4932212;29;20435;-80
2021/12/15 13:44:20;;;;;;;5.32;3.00;;;7.50;99.90;;;;;;4931970;29;20054;-79
2021/12/15 13:46:52;;;;;;;6.57;3.42;;;7.50;99.90;;;;;;4931903;29;20065;-79
2021/12/15 13:49:30;;;;;;;6.97;3.50;;;7.50;99.90;;;;;;4933796;29;20056;-78
2021/12/15 13:52:19;;;;;;;5.55;3.10;;;7.60;99.90;;;;;;4922410;29;20080;-80
2021/12/15 13:55:13;;;;;;;6.60;3.40;;;7.50;99.90;;;;;;4916511;29;20052;-79
2021/12/15 13:57:54;;;;;;;5.88;3.00;;;7.50;99.90;;;;;;4919253;29;20048;-79
2021/12/15 14:00:29;;;;;;;5.38;2.97;;;7.50;99.90;;;;;;4916451;29;20063;-79
2021/12/15 14:03:03;;;;;;;;;;;7.50;99.90;;;;;;4925307;29;20052;-76
2021/12/15 14:05:35;;;;;;;6.35;2.75;;;7.60;99.90;;;;;;4918113;29;20261;-80
2021/12/15 14:08:08;;;;;;;5.13;2.70;;;7.60;99.90;;;;;;4920962;29;20050;-78
2021/12/15 14:10:48;;;;;;;6.80;3.40;;;7.60;99.90;;;;;;4934843;29;20508;-79
2021/12/15 14:13:16;;;;;;;5.65;3.10;;;7.60;99.90;;;;;;4935363;29;20408;-79
2021/12/15 14:15:55;;;;;;;5.68;3.08;;;7.60;99.90;;;;;;4935184;29;20051;-76
2021/12/15 14:18:26;;;;;;;5.45;2.97;;;7.50;99.90;;;;;;4935151;29;20056;-76
2021/12/15 14:20:59;;;;;;;5.43;3.08;;;7.60;99.90;;;;;;4924583;29;20056;-78
2021/12/15 14:23:31;;;;;;;5.70;2.90;;;7.60;99.90;;;;;;4916007;29;20100;-78
2021/12/15 14:26:02;;;;;;;6.38;3.00;;;7.50;99.90;;;;;;4915899;29;20056;-81
2021/12/15 14:28:33;;;;;;;6.47;3.33;;;7.50;99.90;;;;;;4942061;29;20051;-79
2021/12/15 14:31:04;;;;;;;4.82;2.78;;;7.50;99.90;;;;;;4953882;29;20078;-79
2021/12/15 14:33:36;;;;;;;6.03;3.00;;;7.60;99.90;;;;;;4954109;29;20412;-77
2021/12/15 14:36:10;;;;;;;5.93;3.03;;;7.50;99.90;;;;;;4953524;29;20500;-79
2021/12/15 14:38:45;;;;;;;6.20;3.55;;;7.50;99.90;;;;;;4953998;29;20519;-80
2021/12/15 14:41:18;;;;;;;5.25;3.10;;;7.60;99.90;;;;;;4953340;29;20055;-79
2021/12/15 14:43:51;;;;;;;6.20;3.30;;;7.50;99.90;;;;;;4953864;29;20449;-77
2021/12/15 14:46:26;;;;;;;6.22;3.30;;;7.50;99.90;;;;;;4954092;29;20059;-80
2021/12/15 14:49:03;;;;;;;6.80;3.38;;;7.40;99.90;;;;;;4954038;29;20405;-79
2021/12/15 14:51:30;;;;;;;6.60;3.35;;;7.40;99.90;;;;;;4953616;29;20059;-78
2021/12/15 14:53:59;;;;;;;6.50;3.40;;;7.40;99.90;;;;;;4953471;29;20047;-79
2021/12/15 14:56:48;;;;;;;6.22;3.35;;;7.40;99.90;;;;;;4954249;29;20047;-80
2021/12/15 14:59:19;;;;;;;5.43;3.08;;;7.40;99.90;;;;;;4954739;28;20126;-81
2021/12/15 15:01:51;;;;;;;5.32;3.20;;;7.40;99.90;;;;;;4955339;29;20073;-83
2021/12/15 15:04:21;;;;;;;7.20;3.17;;;7.50;99.90;;;;;;4954688;29;20051;-80
2021/12/15 15:06:48;;;;;;;5.47;3.20;;;7.50;99.90;;;;;;4953472;29;20145;-81
2021/12/15 15:09:22;;;;;;;5.65;3.10;;;7.50;99.90;;;;;;4955070;29;20051;-81
2021/12/15 15:11:58;;;;;;;6.13;3.30;;;7.50;99.90;;;;;;4954578;29;20058;-81
2021/12/15 15:14:33;;;;;;;6.18;3.20;;;7.50;99.90;;;;;;4954583;29;20043;-81
2021/12/15 15:17:01;;;;;;;7.65;3.38;;;7.50;99.90;;;;;;4939933;29;20062;-80
2021/12/15 15:19:31;;;;;;;5.13;3.05;;;7.50;99.90;;;;;;4934922;29;20056;-83
2021/12/15 15:22:00;;;;;;;5.15;3.10;;;7.50;99.90;;;;;;4934818;29;20058;-81
2021/12/15 15:24:33;;;;;;;6.40;3.40;;;7.50;99.90;;;;;;4935163;29;20103;-81
2021/12/15 15:27:06;;;;;;;5.40;3.22;;;7.50;99.90;;;;;;4934725;29;20115;-82
2021/12/15 15:29:39;;;;;;;6.22;3.60;;;7.50;99.90;;;;;;4934545;29;20061;-82
2021/12/15 15:32:12;;;;;;;6.50;3.50;;;7.40;99.90;;;;;;4934039;29;20051;-79
2021/12/15 15:34:39;;;;;;;5.22;3.00;;;7.50;99.90;;;;;;4933879;29;20163;-79
2021/12/15 15:37:18;;;;;;;6.57;3.65;;;7.40;99.90;;;;;;4933892;29;20059;-81
2021/12/15 15:39:47;;;;;;;6.53;3.65;;;7.50;99.90;;;;;;4933658;29;20056;-83
2021/12/15 15:42:24;;;;;;;6.68;3.90;;;7.40;99.90;;;;;;4933732;29;20048;-80
2021/12/15 15:44:51;;;;;;;6.50;3.70;;;7.40;99.90;;;;;;4935554;29;20047;-80
2021/12/15 15:47:22;;;;;;;6.43;3.50;;;7.40;99.90;;;;;;4937200;29;20516;-80
2021/12/15 15:49:54;;;;;;;6.93;3.65;;;7.40;99.90;;;;;;4933414;29;20490;-80
2021/12/15 15:52:21;;;;;;;5.85;3.50;;;7.40;99.90;;;;;;4934342;29;20052;-81
2021/12/15 15:54:50;;;;;;;6.18;3.28;;;7.40;99.90;;;;;;4940375;29;20049;-80
2021/12/15 15:57:22;;;;;;;6.47;3.30;;;7.40;99.90;;;;;;4941898;29;20047;-81
2021/12/15 15:59:50;;;;;;;6.18;3.28;;;7.40;99.90;;;;;;4940558;29;20063;-81
2021/12/15 16:02:18;;;;;;;6.22;3.45;;;7.40;99.90;;;;;;4929553;29;20056;-80
2021/12/15 16:04:46;;;;;;;6.28;3.50;;;7.40;99.90;;;;;;4921840;29;20048;-82
2021/12/15 16:07:18;;;;;;;5.78;3.25;;;7.40;99.90;;;;;;4922687;29;20051;-81
2021/12/15 16:09:48;;;;;;;5.35;3.10;;;7.30;99.90;;;;;;4923328;29;20048;-80
2021/12/15 16:12:18;;;;;;;5.70;3.47;;;7.30;99.90;;;;;;4922098;29;20558;-79
2021/12/15 16:14:51;;;;;;;5.82;3.40;;;7.30;99.90;;;;;;4921513;29;20106;-81
2021/12/15 16:17:26;;;;;;;6.40;3.80;;;7.30;99.90;;;;;;4922626;29;20090;-78
2021/12/15 16:20:12;;;;;;;6.55;3.67;;;7.30;99.90;;;;;;4919910;29;20406;-78
2021/12/15 16:22:51;;;;;;;6.57;3.95;;;7.30;99.90;;;;;;4915239;29;20455;-80
2021/12/15 16:25:23;;;;;;;6.82;3.92;;;7.30;99.90;;;;;;4922306;29;20379;-80
2021/12/15 16:27:54;;;;;;;6.65;4.35;;;7.30;99.90;;;;;;4924670;29;20058;-81
2021/12/15 16:30:26;;;;;;;7.55;4.30;;;7.30;99.90;;;;;;4922957;29;20051;-81
2021/12/15 16:32:58;;;;;;;6.78;4.28;;;7.30;99.90;;;;;;4925917;29;20412;-81
2021/12/15 16:35:29;;;;;;;7.93;4.20;;;7.20;99.90;;;;;;4922917;29;20062;-78
2021/12/15 16:38:07;;;;;;;6.75;4.28;;;7.20;99.90;;;;;;4917557;29;20052;-80
2021/12/15 16:40:36;;;;;;;7.68;4.30;;;7.20;99.90;;;;;;4912821;29;20051;-79
2021/12/15 16:43:10;;;;;;;8.27;4.95;;;7.20;99.90;;;;;;4921143;29;20048;-80
2021/12/15 16:45:41;;;;;;;;;;;7.20;99.90;;;;;;4917818;29;20052;-80
2021/12/15 16:48:32;;;;;;;7.00;4.13;;;7.20;99.90;;;;;;4917205;29;20455;-80
2021/12/15 16:51:04;;;;;;;7.07;4.43;;;7.20;99.90;;;;;;4923741;29;20058;-80
2021/12/15 16:53:42;;;;;;;7.85;4.32;;;7.20;99.90;;;;;;4921193;29;20048;-79
2021/12/15 16:56:14;;;;;;;7.05;4.65;;;7.20;99.90;;;;;;4920939;29;20506;-81
2021/12/15 16:58:43;;;;;;;6.68;4.30;;;7.10;99.90;;;;;;4920835;29;20730;-80
2021/12/15 17:01:10;;;;;;;7.30;4.72;;;7.10;99.90;;;;;;4924253;29;20398;-82
2021/12/15 17:03:41;;;;;;;6.95;4.20;;;7.10;99.90;;;;;;4946617;29;20484;-80
2021/12/15 17:06:09;;;;;;;7.63;4.30;;;7.10;99.90;;;;;;4949115;29;20134;-81
2021/12/15 17:08:42;;;;;;;6.90;4.28;;;7.10;99.90;;;;;;4916655;29;20049;-80
2021/12/15 17:11:15;;;;;;;8.10;4.53;;;7.10;99.90;;;;;;4939766;29;20134;-79
2021/12/15 17:13:45;;;;;;;8.30;4.97;;;7.10;99.90;;;;;;4919582;29;20043;-81
2021/12/15 17:16:22;;;;;;;7.50;4.43;;;7.10;99.90;;;;;;4942163;29;20396;-78
2021/12/15 17:18:50;;;;;;;6.57;4.43;;;7.10;99.90;;;;;;4939404;29;20043;-80
2021/12/15 17:21:24;;;;;;;7.65;4.60;;;7.10;99.90;;;;;;4940691;29;20086;-80
2021/12/15 17:23:54;;;;;;;7.97;5.00;;;7.10;99.90;;;;;;4942580;29;20055;-79
2021/12/15 17:26:29;;;;;;;7.53;4.85;;;7.10;99.90;;;;;;4929217;29;20058;-79
2021/12/15 17:29:01;;;;;;;8.00;5.03;;;7.10;99.90;;;;;;4926632;29;20055;-78
2021/12/15 17:31:32;;;;;;;8.23;4.90;;;7.10;99.90;;;;;;4931176;29;20134;-78
2021/12/15 17:34:06;;;;;;;8.23;5.50;;;7.10;99.90;;;;;;4931699;29;20075;-78
2021/12/15 17:36:37;;;;;;;8.75;5.50;;;7.10;99.90;;;;;;4932061;29;20083;-80
2021/12/15 17:39:14;;;;;;;8.73;5.07;;;7.10;99.90;;;;;;4932350;29;20058;-79
2021/12/15 17:41:44;;;;;;;8.20;5.13;;;7.10;99.90;;;;;;4934898;29;20112;-78
2021/12/15 17:44:22;;;;;;;9.52;5.32;;;7.10;99.90;;;;;;4940354;29;20059;-81
2021/12/15 17:47:02;;;;;;;8.38;5.22;;;7.10;99.90;;;;;;4937790;29;20051;-80
2021/12/15 17:49:34;;;;;;;8.50;5.60;;;7.10;99.90;;;;;;4941077;29;20051;-79
2021/12/15 17:52:12;;;;;;;7.85;5.25;;;7.10;99.90;;;;;;4939561;29;20127;-78
2021/12/15 17:54:45;;;;;;;7.30;4.93;;;7.10;99.90;;;;;;4932007;29;20050;-77
2021/12/15 17:57:13;;;;;;;7.40;4.65;;;7.10;99.90;;;;;;4938883;29;20043;-79
2021/12/15 17:59:47;;;;;;;9.65;6.15;;;7.10;99.90;;;;;;4937575;29;20397;-81
2021/12/15 18:02:18;;;;;;;8.60;5.95;;;7.10;99.90;;;;;;4922309;29;20054;-77
2021/12/15 18:04:46;;;;;;;9.07;6.13;;;7.10;99.90;;;;;;4917912;29;20515;-79
2021/12/15 18:07:15;;;;;;;8.73;5.75;;;7.10;99.90;;;;;;4918798;29;20131;-78
2021/12/15 18:09:46;;;;;;;7.90;5.30;;;7.10;99.90;;;;;;4918904;29;20156;-77
2021/12/15 18:12:18;;;;;;;8.35;5.35;;;7.10;99.90;;;;;;4919443;29;20093;-80
2021/12/15 18:14:48;;;;;;;8.48;5.65;;;7.10;99.90;;;;;;4922053;29;20054;-81
2021/12/15 18:17:16;;;;;;;10.00;6.07;;;7.10;99.90;;;;;;4893207;29;20059;-78
2021/12/15 18:19:44;;;;;;;9.20;5.97;;;7.10;99.90;;;;;;4905736;29;20054;-78
2021/12/15 18:22:12;;;;;;;8.98;5.90;;;7.00;99.90;;;;;;4920511;29;20058;-78
2021/12/15 18:24:39;;;;;;;10.00;6.35;;;7.00;99.90;;;;;;4911540;29;20502;-78
2021/12/15 18:27:09;;;;;;;10.75;6.32;;;7.00;99.90;;;;;;4923545;29;20375;-80
2021/12/15 18:29:40;;;;;;;10.00;6.28;;;7.00;99.90;;;;;;4896268;29;20082;-78
2021/12/15 18:32:13;;;;;;;10.30;6.10;;;6.90;99.90;;;;;;4920906;29;20508;-77
2021/12/15 18:34:42;;;;;;;10.57;6.53;;;7.00;99.90;;;;;;4897395;29;20048;-77
2021/12/15 18:37:12;;;;;;;11.43;7.30;;;7.00;99.90;;;;;;4912310;29;20062;-77
2021/12/15 18:39:44;;;;;;;9.57;6.32;;;7.00;99.90;;;;;;4911448;29;20052;-81
2021/12/15 18:42:15;;;;;;;9.68;6.20;;;7.00;99.90;;;;;;4913951;29;20052;-78
2021/12/15 18:44:43;;;;;;;10.23;6.97;;;7.00;99.90;;;;;;4912539;29;20494;-79
2021/12/15 18:47:11;;;;;;;10.77;6.93;;;7.00;99.90;;;;;;4913066;29;20401;-77
2021/12/15 18:49:41;;;;;;;11.02;7.00;;;7.00;99.90;;;;;;4912804;29;20048;-79
2021/12/15 18:52:13;;;;;;;12.07;6.90;;;7.00;99.90;;;;;;4913645;29;20048;-78
2021/12/15 18:54:42;;;;;;;11.55;7.18;;;7.00;99.90;;;;;;4911026;29;20056;-78
2021/12/15 18:57:12;;;;;;;11.60;7.00;;;6.90;99.90;;;;;;4905472;29;20062;-78
2021/12/15 18:59:41;;;;;;;10.65;7.30;;;6.90;99.90;;;;;;4912223;29;20044;-78
2021/12/15 19:02:14;;;;;;;10.90;7.05;;;6.90;99.90;;;;;;4927009;29;20066;-79
2021/12/15 19:04:44;;;;;;;10.60;6.78;;;6.90;99.90;;;;;;4931607;29;20593;-78
2021/12/15 19:07:17;;;;;;;11.82;7.75;;;6.90;99.90;;;;;;4932273;29;20055;-79
2021/12/15 19:09:45;;;;;;;13.52;8.35;;;6.90;99.90;;;;;;4932022;29;20052;-80
2021/12/15 19:12:15;;;;;;;12.80;7.65;;;6.80;99.90;;;;;;4935466;29;20075;-79
2021/12/15 19:14:45;;;;;;;13.65;8.35;;;6.80;99.90;;;;;;4939435;29;20103;-80
2021/12/15 19:17:14;;;;;;;16.48;9.68;;;6.80;99.90;;;;;;4940912;29;20051;-78
2021/12/15 19:19:45;;;;;;;17.38;10.57;;;6.90;99.90;;;;;;4932932;29;20405;-78
2021/12/15 19:22:18;;;;;;;14.07;9.07;;;6.80;99.90;;;;;;4932749;29;20061;-79
2021/12/15 19:24:45;;;;;;;14.50;9.60;;;6.90;99.90;;;;;;4932843;29;20047;-80
2021/12/15 19:27:15;;;;;;;13.32;8.73;;;6.80;99.90;;;;;;4932526;29;20050;-79
2021/12/15 19:29:43;;;;;;;13.75;8.75;;;6.80;99.90;;;;;;4933249;29;20044;-78
2021/12/15 19:32:10;;;;;;;12.68;8.40;;;6.80;99.90;;;;;;4930889;29;20048;-77
2021/12/15 19:34:40;;;;;;;12.52;8.65;;;6.70;99.90;;;;;;4935826;29;20134;-78
2021/12/15 19:37:07;;;;;;;12.10;8.52;;;6.80;99.90;;;;;;4935548;29;20106;-78
2021/12/15 19:39:35;;;;;;;12.75;8.65;;;6.70;99.90;;;;;;4932084;29;20058;-77
2021/12/15 19:42:02;;;;;;;12.77;8.65;;;6.70;99.90;;;;;;4929686;29;20139;-75
2021/12/15 19:44:29;;;;;;;12.60;8.27;;;6.70;99.90;;;;;;4930268;29;20048;-74
2021/12/15 19:47:00;;;;;;;12.77;8.82;;;6.80;99.90;;;;;;4928638;29;20059;-74
2021/12/15 19:49:30;;;;;;;14.45;9.35;;;6.70;99.90;;;;;;4928810;29;20126;-76
2021/12/15 19:51:59;;;;;;;11.65;8.25;;;6.70;99.90;;;;;;4932021;29;20067;-74
2021/12/15 19:54:27;;;;;;;12.90;8.73;;;6.70;99.90;;;;;;4932221;29;20508;-74
2021/12/15 19:56:55;;;;;;;14.65;9.38;;;6.70;99.90;;;;;;4932340;29;20437;-75
2021/12/15 19:59:24;;;;;;;12.88;8.38;;;6.70;99.90;;;;;;4931993;29;20138;-75
2021/12/15 20:01:54;;;;;;;13.93;8.85;;;6.70;99.90;;;;;;4931180;29;20130;-78
2021/12/15 20:04:24;;;;;;;13.32;9.10;;;6.80;99.90;;;;;;4930933;29;20083;-76
2021/12/15 20:06:52;;;;;;;12.52;8.40;;;6.70;99.90;;;;;;4931856;29;20486;-79